createdAt,value
2022-08-07T00:00:18.705Z,21.46
2022-08-07T00:03:04.338Z,21.37
2022-08-07T00:05:32.547Z,21.36
2022-08-07T00:08:04.067Z,21.29
2022-08-07T00:10:31.710Z,21.40
2022-08-07T00:13:02.026Z,21.41
2022-08-07T00:15:38.633Z,21.39
2022-08-07T00:18:19.907Z,21.31
2022-08-07T00:20:49.616Z,21.32
2022-08-07T00:23:17.232Z,21.35
2022-08-07T00:25:45.987Z,21.35
2022-08-07T00:28:25.310Z,21.37
2022-08-07T00:31:04.274Z,21.41
2022-08-07T00:33:32.791Z,21.27
2022-08-07T00:36:00.371Z,21.46
2022-08-07T00:38:31.233Z,21.50
2022-08-07T00:40:59.736Z,21.55
2022-08-07T00:44:01.151Z,21.56
2022-08-07T00:46:14.722Z,21.67
2022-08-07T00:48:41.968Z,21.58
2022-08-07T00:51:10.500Z,21.51
2022-08-07T00:53:50.550Z,21.58
2022-08-07T00:56:23.050Z,21.67
2022-08-07T00:58:58.547Z,21.64
2022-08-07T01:01:25.808Z,21.62
2022-08-07T01:03:57.127Z,21.70
2022-08-07T01:06:29.321Z,21.65
2022-08-07T01:09:00.743Z,21.57
2022-08-07T01:12:23.371Z,21.55
2022-08-07T01:14:28.900Z,21.54
2022-08-07T01:16:57.717Z,21.55
2022-08-07T01:19:25.260Z,21.54
2022-08-07T01:21:53.504Z,21.69
2022-08-07T01:24:22.862Z,21.61
2022-08-07T01:26:51.908Z,21.59
2022-08-07T01:29:22.449Z,21.71
2022-08-07T01:31:51.408Z,21.67
2022-08-07T01:34:19.093Z,21.78
2022-08-07T01:36:52.785Z,21.76
2022-08-07T01:39:41.322Z,21.73
2022-08-07T01:42:39.543Z,21.73
2022-08-07T01:45:05.018Z,21.64
2022-08-07T01:48:29.674Z,21.73
2022-08-07T01:50:28.919Z,21.70
2022-08-07T01:52:58.519Z,21.67
2022-08-07T01:55:34.476Z,21.70
2022-08-07T01:58:29.343Z,21.72
2022-08-07T02:01:09.713Z,21.74
2022-08-07T02:03:48.630Z,21.75
2022-08-07T02:06:30.898Z,21.66
2022-08-07T02:09:03.609Z,21.62
2022-08-07T02:12:04.306Z,21.62
2022-08-07T02:14:36.325Z,21.70
2022-08-07T02:17:10.994Z,21.67
2022-08-07T02:20:04.452Z,21.68
2022-08-07T02:22:30.528Z,21.65
2022-08-07T02:24:58.858Z,21.70
2022-08-07T02:27:34.204Z,21.78
2022-08-07T02:30:07.444Z,21.75
2022-08-07T02:32:39.486Z,21.77
2022-08-07T02:36:28.206Z,21.80
2022-08-07T02:38:14.687Z,21.83
2022-08-07T02:40:44.484Z,21.79
2022-08-07T02:43:15.504Z,21.77
2022-08-07T02:45:59.236Z,21.86
2022-08-07T02:48:28.854Z,21.84
2022-08-07T02:50:57.195Z,21.72
2022-08-07T02:53:38.266Z,21.65
2022-08-07T02:56:17.327Z,21.60
2022-08-07T02:58:47.323Z,21.63
2022-08-07T03:01:19.002Z,21.62
2022-08-07T03:04:03.221Z,21.60
2022-08-07T03:06:34.940Z,21.53
2022-08-07T03:09:03.761Z,21.48
2022-08-07T03:11:38.556Z,21.45
2022-08-07T03:14:07.033Z,21.34
2022-08-07T03:16:38.355Z,21.35
2022-08-07T03:19:06.044Z,21.35
2022-08-07T03:21:33.472Z,21.35
2022-08-07T03:24:20.524Z,21.37
2022-08-07T03:26:58.871Z,21.43
2022-08-07T03:29:51.046Z,21.39
2022-08-07T03:32:22.917Z,21.36
2022-08-07T03:35:17.070Z,21.34
2022-08-07T03:37:46.495Z,21.39
2022-08-07T03:40:22.404Z,21.43
2022-08-07T03:42:51.639Z,21.46
2022-08-07T03:45:30.015Z,21.44
2022-08-07T03:47:58.684Z,21.40
2022-08-07T03:50:28.736Z,21.40
2022-08-07T03:52:59.077Z,21.45
2022-08-07T03:55:53.045Z,21.48
2022-08-07T03:59:07.381Z,21.56
2022-08-07T04:01:04.985Z,21.54
2022-08-07T04:03:49.615Z,21.49
2022-08-07T04:06:36.135Z,21.59
2022-08-07T04:09:05.679Z,21.80
2022-08-07T04:12:23.366Z,21.91
2022-08-07T04:14:38.086Z,22.03
2022-08-07T04:17:21.281Z,22.14
2022-08-07T04:19:52.308Z,22.27
2022-08-07T04:22:27.458Z,22.38
2022-08-07T04:24:58.089Z,22.40
2022-08-07T04:27:26.523Z,22.42
2022-08-07T04:30:01.215Z,22.35
2022-08-07T04:32:34.239Z,22.31
2022-08-07T04:35:07.234Z,22.28
2022-08-07T04:37:52.752Z,22.31
2022-08-07T04:40:26.588Z,22.37
2022-08-07T04:43:02.189Z,22.54
2022-08-07T04:45:57.718Z,22.50
2022-08-07T04:48:35.435Z,22.40
2022-08-07T04:51:16.257Z,22.41
2022-08-07T04:54:08.114Z,22.57
2022-08-07T04:58:15.618Z,22.51
2022-08-07T05:00:12.245Z,22.44
2022-08-07T05:02:45.742Z,22.55
2022-08-07T05:05:52.790Z,22.46
2022-08-07T05:09:00.169Z,22.55
2022-08-07T05:11:57.019Z,22.56
2022-08-07T05:14:55.527Z,22.51
2022-08-07T05:17:50.453Z,22.55
2022-08-07T05:20:09.867Z,22.55
2022-08-07T05:22:39.173Z,22.56
2022-08-07T05:25:11.577Z,22.64
2022-08-07T05:28:02.615Z,22.83
2022-08-07T05:30:43.331Z,22.88
2022-08-07T05:33:16.168Z,22.93
2022-08-07T05:35:45.913Z,23.00
2022-08-07T05:39:00.867Z,22.99
2022-08-07T05:41:11.944Z,22.94
2022-08-07T05:44:07.577Z,22.96
2022-08-07T05:46:31.709Z,23.02
2022-08-07T05:49:00.306Z,23.07
2022-08-07T05:51:31.604Z,23.11
2022-08-07T05:54:13.344Z,23.17
2022-08-07T05:56:51.484Z,23.47
2022-08-07T05:59:21.046Z,23.32
2022-08-07T06:01:49.532Z,23.36
2022-08-07T06:04:19.811Z,23.41
2022-08-07T06:06:47.641Z,23.44
2022-08-07T06:10:04.745Z,23.55
2022-08-07T06:12:11.324Z,23.72
2022-08-07T06:14:49.572Z,23.59
2022-08-07T06:17:19.278Z,23.73
2022-08-07T06:20:03.459Z,23.66
2022-08-07T06:22:38.357Z,23.77
2022-08-07T06:25:06.256Z,23.86
2022-08-07T06:28:00.566Z,23.74
2022-08-07T06:30:35.789Z,23.89
2022-08-07T06:33:09.777Z,23.96
2022-08-07T06:35:47.853Z,23.71
2022-08-07T06:38:30.387Z,23.65
2022-08-07T06:40:59.828Z,23.72
2022-08-07T06:43:39.383Z,23.86
2022-08-07T06:46:11.453Z,23.85
2022-08-07T06:48:41.811Z,23.90
2022-08-07T06:51:31.237Z,24.00
2022-08-07T06:55:29.492Z,23.76
2022-08-07T06:56:51.476Z,23.77
2022-08-07T07:00:12.030Z,23.89
2022-08-07T07:02:53.643Z,23.97
2022-08-07T07:05:08.907Z,23.94
2022-08-07T07:07:59.090Z,24.02
2022-08-07T07:10:33.413Z,24.04
2022-08-07T07:13:07.886Z,23.95
2022-08-07T07:15:44.455Z,23.50
2022-08-07T07:18:33.139Z,23.56
2022-08-07T07:21:13.530Z,23.47
2022-08-07T07:24:08.277Z,23.54
2022-08-07T07:26:37.926Z,23.58
2022-08-07T07:29:40.434Z,23.55
2022-08-07T07:32:03.057Z,23.50
2022-08-07T07:34:33.231Z,23.54
2022-08-07T07:37:14.472Z,23.58
2022-08-07T07:39:54.882Z,23.74
2022-08-07T07:42:32.559Z,23.81
2022-08-07T07:45:02.523Z,23.79
2022-08-07T07:47:30.387Z,24.00
2022-08-07T07:50:33.398Z,24.13
2022-08-07T07:53:13.678Z,23.99
2022-08-07T07:56:00.983Z,24.02
2022-08-07T07:58:36.885Z,23.89
2022-08-07T08:02:01.775Z,23.46
2022-08-07T08:04:09.487Z,23.74
2022-08-07T08:06:40.696Z,24.05
2022-08-07T08:09:22.774Z,24.38
2022-08-07T08:12:01.763Z,24.37
2022-08-07T08:14:31.827Z,24.22
2022-08-07T08:18:36.853Z,24.15
2022-08-07T08:20:19.556Z,24.39
2022-08-07T08:23:01.946Z,24.49
2022-08-07T08:25:52.089Z,24.17
2022-08-07T08:28:38.417Z,24.47
2022-08-07T08:31:15.826Z,24.45
2022-08-07T08:33:49.802Z,24.45
2022-08-07T08:36:31.972Z,24.72
2022-08-07T08:39:03.591Z,24.85
2022-08-07T08:41:57.311Z,25.07
2022-08-07T08:44:44.940Z,25.00
2022-08-07T08:47:27.510Z,25.27
2022-08-07T08:50:39.476Z,25.15
2022-08-07T08:53:22.560Z,25.13
2022-08-07T08:55:53.441Z,25.21
2022-08-07T08:58:35.069Z,25.36
2022-08-07T09:01:15.360Z,25.60
2022-08-07T09:04:01.840Z,26.13
2022-08-07T09:06:47.611Z,26.38
2022-08-07T09:09:56.490Z,26.40
2022-08-07T09:12:53.541Z,26.49
2022-08-07T09:16:25.844Z,26.55
2022-08-07T09:18:58.839Z,26.40
2022-08-07T09:21:58.254Z,26.60
2022-08-07T09:24:53.891Z,26.84
2022-08-07T09:27:19.714Z,26.99
2022-08-07T09:30:04.270Z,27.13
2022-08-07T09:32:47.302Z,26.93
2022-08-07T09:36:03.237Z,27.08
2022-08-07T09:39:11.538Z,27.27
2022-08-07T09:42:05.633Z,27.24
2022-08-07T09:47:19.957Z,27.32
2022-08-07T09:48:03.971Z,26.95
2022-08-07T09:50:54.398Z,27.31
2022-08-07T09:53:24.607Z,27.26
2022-08-07T09:56:37.527Z,27.38
2022-08-07T09:59:28.132Z,27.38
2022-08-07T10:02:24.232Z,27.48
2022-08-07T10:05:15.146Z,27.56
2022-08-07T10:08:01.166Z,27.55
2022-08-07T10:11:00.374Z,27.95
2022-08-07T10:14:00.355Z,28.10
2022-08-07T10:17:14.273Z,28.07
2022-08-07T10:19:56.404Z,28.46
2022-08-07T10:23:02.963Z,28.97
2022-08-07T10:25:51.824Z,29.37
2022-08-07T10:28:50.282Z,29.42
2022-08-07T10:31:41.996Z,29.39
2022-08-07T10:34:27.027Z,29.17
2022-08-07T10:37:26.468Z,28.86
2022-08-07T10:40:21.136Z,28.41
2022-08-07T10:43:06.702Z,28.17
2022-08-07T10:45:44.113Z,28.28
2022-08-07T10:48:34.923Z,28.27
2022-08-07T10:51:07.449Z,28.19
2022-08-07T10:53:50.066Z,28.36
2022-08-07T10:56:46.561Z,28.28
2022-08-07T10:59:37.342Z,28.58
2022-08-07T11:02:34.103Z,28.32
2022-08-07T11:05:14.823Z,28.72
2022-08-07T11:08:23.008Z,28.52
2022-08-07T11:11:20.251Z,28.60
2022-08-07T11:14:45.537Z,28.77
2022-08-07T11:16:54.765Z,29.19
2022-08-07T11:19:36.004Z,29.73
2022-08-07T11:22:11.273Z,29.68
2022-08-07T11:24:57.149Z,29.32
2022-08-07T11:28:02.888Z,29.41
2022-08-07T11:30:55.769Z,29.26
2022-08-07T11:33:59.242Z,29.72
2022-08-07T11:36:57.214Z,29.92
2022-08-07T11:39:23.983Z,30.12
2022-08-07T11:42:06.548Z,30.01
2022-08-07T11:44:52.470Z,30.14
2022-08-07T11:47:59.545Z,30.05
2022-08-07T11:50:58.348Z,30.09
2022-08-07T11:54:01.382Z,30.50
2022-08-07T11:56:29.021Z,30.71
2022-08-07T12:00:07.543Z,30.52
2022-08-07T12:02:52.483Z,31.18
2022-08-07T12:05:48.870Z,31.54
2022-08-07T12:08:34.797Z,31.56
2022-08-07T12:11:22.554Z,31.75
2022-08-07T12:14:05.441Z,32.31
2022-08-07T12:16:45.405Z,31.94
2022-08-07T12:20:02.730Z,32.48
2022-08-07T12:22:56.340Z,33.09
2022-08-07T12:26:06.139Z,33.49
2022-08-07T12:28:59.094Z,33.99
2022-08-07T12:32:03.904Z,33.68
2022-08-07T12:34:36.089Z,33.95
2022-08-07T12:37:08.162Z,33.18
2022-08-07T12:39:50.922Z,33.91
2022-08-07T12:42:27.989Z,33.30
2022-08-07T12:44:59.029Z,33.30
2022-08-07T12:47:37.747Z,33.73
2022-08-07T12:50:34.480Z,34.15
